createdAt,value
2023-05-15T00:01:01.085Z,3.00
2023-05-15T00:03:29.344Z,4.82
2023-05-15T00:05:57.807Z,4.38
2023-05-15T00:08:27.356Z,3.38
2023-05-15T00:11:01.379Z,3.38
2023-05-15T00:13:31.775Z,3.35
2023-05-15T00:15:59.999Z,3.72
2023-05-15T00:18:28.179Z,3.40
2023-05-15T00:20:56.292Z,3.30
2023-05-15T00:23:24.392Z,10.38
2023-05-15T00:25:53.956Z,3.22
2023-05-15T00:28:22.097Z,5.03
2023-05-15T00:30:50.204Z,3.75
2023-05-15T00:33:18.286Z,3.95
2023-05-15T00:35:46.576Z,3.95
2023-05-15T00:38:14.653Z,5.65
2023-05-15T00:40:44.461Z,4.72
2023-05-15T00:43:15.516Z,6.32
2023-05-15T00:45:44.549Z,5.40
2023-05-15T00:48:13.348Z,6.97
2023-05-15T00:50:42.588Z,8.55
2023-05-15T00:53:10.916Z,4.97
2023-05-15T00:55:40.530Z,6.03
2023-05-15T00:58:11.368Z,7.50
2023-05-15T01:00:43.144Z,4.40
2023-05-15T01:03:11.399Z,4.07
2023-05-15T01:05:39.767Z,6.18
2023-05-15T01:08:20.092Z,4.38
2023-05-15T01:10:49.935Z,5.55
2023-05-15T01:13:20.750Z,5.28
2023-05-15T01:15:50.486Z,6.63
2023-05-15T01:18:18.756Z,6.30
2023-05-15T01:21:02.848Z,4.28
2023-05-15T01:23:46.749Z,3.53
2023-05-15T01:26:39.791Z,5.95
2023-05-15T01:29:15.758Z,5.25
2023-05-15T01:31:49.041Z,4.13
2023-05-15T01:36:50.341Z,3.30
2023-05-15T01:39:23.135Z,5.88
2023-05-15T01:41:55.891Z,4.03
2023-05-15T01:44:29.500Z,3.30
2023-05-15T01:47:01.077Z,3.88
2023-05-15T01:49:31.979Z,3.38
2023-05-15T01:52:04.573Z,4.00
2023-05-15T01:54:33.133Z,5.30
2023-05-15T01:57:02.393Z,6.30
2023-05-15T01:59:33.628Z,4.65
2023-05-15T02:02:03.593Z,5.60
2023-05-15T02:04:32.137Z,3.63
2023-05-15T02:07:02.321Z,3.75
2023-05-15T02:09:30.886Z,3.40
2023-05-15T02:11:59.698Z,3.40
2023-05-15T02:14:29.384Z,3.20
2023-05-15T02:16:58.976Z,3.08
2023-05-15T02:19:27.202Z,3.30
2023-05-15T02:21:55.268Z,3.42
2023-05-15T02:24:23.399Z,5.20
2023-05-15T02:26:57.972Z,3.90
2023-05-15T02:29:38.109Z,3.22
2023-05-15T02:32:16.148Z,3.50
2023-05-15T02:34:53.531Z,3.05
2023-05-15T02:37:29.040Z,2.67
2023-05-15T02:39:59.786Z,2.65
2023-05-15T02:42:29.266Z,7.50
2023-05-15T02:44:58.711Z,2.58
2023-05-15T02:47:28.886Z,2.53
2023-05-15T02:49:57.989Z,3.13
2023-05-15T02:52:26.574Z,2.30
2023-05-15T02:54:54.717Z,2.55
2023-05-15T02:57:22.988Z,3.63
2023-05-15T02:59:51.202Z,2.35
2023-05-15T03:02:19.356Z,2.47
2023-05-15T03:04:48.821Z,3.97
2023-05-15T03:07:16.996Z,3.05
2023-05-15T03:09:45.197Z,2.45
2023-05-15T03:12:13.295Z,2.45
2023-05-15T03:14:41.382Z,2.22
2023-05-15T03:17:09.622Z,2.22
2023-05-15T03:19:37.806Z,2.33
2023-05-15T03:22:07.432Z,2.80
2023-05-15T03:24:37.319Z,2.30
2023-05-15T03:27:06.199Z,3.47
2023-05-15T03:29:34.280Z,2.30
2023-05-15T03:32:02.375Z,2.50
2023-05-15T03:34:30.562Z,7.47
2023-05-15T03:36:58.657Z,2.75
2023-05-15T03:39:28.199Z,8.60
2023-05-15T03:41:56.462Z,2.67
2023-05-15T03:44:24.653Z,5.38
2023-05-15T03:46:52.847Z,3.33
2023-05-15T03:49:20.965Z,5.35
2023-05-15T03:51:49.145Z,14.38
2023-05-15T03:54:17.327Z,1.98
2023-05-15T03:56:46.890Z,1.80
2023-05-15T03:59:14.973Z,2.33
2023-05-15T04:01:59.409Z,2.92
2023-05-15T04:04:31.448Z,2.47
2023-05-15T04:06:59.585Z,3.83
2023-05-15T04:09:27.754Z,3.40
2023-05-15T04:11:57.244Z,3.97
2023-05-15T04:14:25.353Z,7.38
2023-05-15T04:16:53.562Z,7.05
2023-05-15T04:19:21.786Z,7.53
2023-05-15T04:21:49.896Z,3.92
2023-05-15T04:24:17.976Z,3.25
2023-05-15T04:26:46.153Z,2.53
2023-05-15T04:29:15.697Z,3.00
2023-05-15T04:31:44.038Z,5.40
2023-05-15T04:34:12.182Z,4.50
2023-05-15T04:36:42.819Z,3.25
2023-05-15T04:39:11.230Z,3.38
2023-05-15T04:41:39.332Z,5.70
2023-05-15T04:44:08.636Z,5.05
2023-05-15T04:46:38.268Z,5.88
2023-05-15T04:49:06.664Z,4.40
2023-05-15T04:51:35.005Z,5.65
2023-05-15T04:54:03.390Z,4.05
2023-05-15T04:56:31.577Z,4.10
2023-05-15T04:58:59.775Z,5.38
2023-05-15T05:01:27.972Z,4.47
2023-05-15T05:03:57.747Z,8.13
2023-05-15T05:06:26.550Z,6.47
2023-05-15T05:08:55.386Z,3.50
2023-05-15T05:11:23.900Z,6.30
2023-05-15T05:13:52.423Z,3.17
2023-05-15T05:16:20.593Z,2.60
2023-05-15T05:18:48.793Z,2.70
2023-05-15T05:21:18.576Z,3.25
2023-05-15T05:23:47.413Z,8.20
2023-05-15T05:26:15.505Z,15.63
2023-05-15T05:28:43.599Z,3.58
2023-05-15T05:31:11.759Z,4.32
2023-05-15T05:33:40.003Z,2.92
2023-05-15T05:36:08.809Z,3.85
2023-05-15T05:38:38.665Z,2.72
2023-05-15T05:41:06.795Z,3.10
2023-05-15T05:43:34.920Z,6.10
2023-05-15T05:46:03.213Z,8.48
2023-05-15T05:48:31.394Z,17.85
2023-05-15T05:50:59.600Z,15.82
2023-05-15T05:53:27.750Z,7.35
2023-05-15T05:55:57.504Z,5.47
2023-05-15T05:58:26.400Z,17.88
2023-05-15T06:00:55.033Z,5.50
2023-05-15T06:03:24.140Z,6.68
2023-05-15T06:05:52.908Z,9.05
2023-05-15T06:08:21.102Z,7.57
2023-05-15T06:10:49.454Z,4.97
2023-05-15T06:13:19.189Z,8.50
2023-05-15T06:15:48.307Z,5.28
2023-05-15T06:18:16.429Z,4.60
2023-05-15T06:20:44.539Z,5.57
2023-05-15T06:23:12.652Z,7.25
2023-05-15T06:25:40.812Z,3.83
2023-05-15T06:28:08.931Z,12.82
2023-05-15T06:30:38.448Z,5.13
2023-05-15T06:33:06.624Z,5.55
2023-05-15T06:35:34.805Z,4.60
2023-05-15T06:38:03.084Z,6.05
2023-05-15T06:40:31.453Z,3.92
2023-05-15T06:42:59.848Z,4.93
2023-05-15T06:45:28.454Z,4.30
2023-05-15T06:48:01.615Z,5.38
2023-05-15T06:52:58.021Z,5.88
2023-05-15T06:55:26.259Z,4.40
2023-05-15T06:57:54.679Z,4.65
2023-05-15T07:00:23.196Z,4.93
2023-05-15T07:02:51.321Z,4.07
2023-05-15T07:05:21.861Z,3.92
2023-05-15T07:07:50.085Z,5.55
2023-05-15T07:10:18.377Z,4.78
2023-05-15T07:12:46.480Z,4.80
2023-05-15T07:15:14.525Z,5.20
2023-05-15T07:17:42.744Z,3.92
2023-05-15T07:20:11.599Z,5.10
2023-05-15T07:22:51.929Z,5.18
2023-05-15T07:25:23.868Z,5.72
2023-05-15T07:27:52.413Z,4.20
2023-05-15T07:30:20.666Z,4.15
2023-05-15T07:32:48.825Z,4.47
2023-05-15T07:35:17.255Z,4.10
2023-05-15T07:37:47.528Z,5.10
2023-05-15T07:40:16.553Z,14.20
2023-05-15T07:42:45.842Z,4.07
2023-05-15T07:45:14.095Z,4.60
2023-05-15T07:47:43.959Z,5.15
2023-05-15T07:50:12.494Z,4.63
2023-05-15T07:52:40.661Z,4.03
2023-05-15T07:55:10.988Z,4.50
2023-05-15T07:57:39.848Z,3.25
2023-05-15T08:00:13.172Z,3.80
2023-05-15T08:05:10.031Z,5.22
2023-05-15T08:07:38.312Z,3.85
2023-05-15T08:10:07.649Z,9.80
2023-05-15T08:12:37.196Z,5.18
2023-05-15T08:15:06.534Z,4.00
2023-05-15T08:17:34.647Z,3.25
2023-05-15T08:20:02.834Z,3.47
2023-05-15T08:22:31.262Z,6.32
2023-05-15T08:25:00.232Z,4.80
2023-05-15T08:27:28.502Z,4.45
2023-05-15T08:29:57.979Z,6.88
2023-05-15T08:32:26.775Z,4.82
2023-05-15T08:34:55.054Z,5.05
2023-05-15T08:37:23.203Z,5.22
2023-05-15T08:39:51.376Z,4.88
2023-05-15T08:42:25.078Z,3.83
2023-05-15T08:44:53.490Z,5.43
2023-05-15T08:47:23.689Z,2.75
2023-05-15T08:50:00.632Z,3.15
2023-05-15T08:52:29.873Z,3.33
2023-05-15T08:54:59.464Z,2.42
2023-05-15T08:57:28.080Z,3.25
2023-05-15T08:59:57.727Z,5.45
2023-05-15T09:02:27.557Z,3.60
2023-05-15T09:04:55.703Z,4.30
2023-05-15T09:07:24.696Z,3.00
2023-05-15T09:09:53.280Z,3.42
2023-05-15T09:12:23.429Z,2.75
2023-05-15T09:14:51.535Z,2.30
2023-05-15T09:17:19.671Z,3.00
2023-05-15T09:19:49.419Z,2.47
2023-05-15T09:22:23.235Z,5.78
2023-05-15T09:24:53.961Z,5.13
2023-05-15T09:27:22.084Z,2.88
2023-05-15T09:29:51.757Z,2.40
2023-05-15T09:32:20.104Z,3.90
2023-05-15T09:34:49.701Z,2.97
2023-05-15T09:37:30.211Z,2.53
2023-05-15T09:40:10.822Z,2.70
2023-05-15T09:42:39.324Z,2.53
2023-05-15T09:45:17.849Z,3.15
2023-05-15T09:47:47.232Z,5.40
2023-05-15T09:50:23.672Z,2.65
2023-05-15T09:52:52.773Z,3.00
2023-05-15T09:55:22.885Z,3.00
2023-05-15T09:58:08.043Z,3.83
2023-05-15T10:00:48.502Z,3.38
2023-05-15T10:03:19.448Z,4.43
2023-05-15T10:05:49.154Z,4.18
2023-05-15T10:08:26.944Z,7.10
2023-05-15T10:10:55.560Z,4.90
2023-05-15T10:13:24.554Z,5.20
2023-05-15T10:15:53.972Z,5.00
2023-05-15T10:18:25.025Z,4.05
2023-05-15T10:20:54.584Z,3.58
2023-05-15T10:23:24.650Z,2.75
2023-05-15T10:25:59.636Z,3.83
2023-05-15T10:28:29.610Z,4.45
2023-05-15T10:31:02.936Z,2.05
2023-05-15T10:33:31.221Z,2.60
2023-05-15T10:36:01.283Z,2.10
2023-05-15T10:38:31.622Z,1.77
2023-05-15T10:41:15.864Z,1.50
2023-05-15T10:43:45.833Z,3.60
2023-05-15T10:46:16.036Z,11.07
2023-05-15T10:48:44.567Z,1.77
2023-05-15T10:51:19.218Z,1.63
2023-05-15T10:53:47.811Z,2.05
2023-05-15T10:56:17.164Z,1.58
2023-05-15T10:58:49.275Z,1.73
2023-05-15T11:01:28.009Z,1.73
2023-05-15T11:04:10.467Z,1.75
2023-05-15T11:06:41.355Z,2.40
2023-05-15T11:09:36.048Z,1.80
2023-05-15T11:12:05.902Z,1.92
2023-05-15T11:14:36.666Z,2.45
2023-05-15T11:17:06.797Z,2.35
2023-05-15T11:19:40.522Z,3.22
2023-05-15T11:22:21.004Z,3.42
2023-05-15T11:24:53.696Z,1.85
2023-05-15T11:27:23.658Z,3.97
2023-05-15T11:30:13.338Z,2.55
2023-05-15T11:32:43.147Z,3.53
2023-05-15T11:35:12.525Z,3.20
2023-05-15T11:37:46.722Z,2.03
2023-05-15T11:40:16.094Z,2.03
2023-05-15T11:42:59.247Z,2.33
2023-05-15T11:45:27.853Z,2.35
2023-05-15T11:47:56.220Z,2.88
2023-05-15T11:50:25.288Z,3.22
2023-05-15T11:52:55.626Z,3.45
2023-05-15T11:55:24.264Z,2.10
2023-05-15T11:57:52.353Z,3.47
2023-05-15T12:00:20.699Z,2.00
2023-05-15T12:02:49.115Z,2.95
2023-05-15T12:05:17.257Z,2.63
2023-05-15T12:07:46.600Z,2.20
2023-05-15T12:10:16.540Z,3.30
2023-05-15T12:12:46.132Z,2.53
2023-05-15T12:15:15.827Z,2.50
2023-05-15T12:17:46.506Z,2.40
2023-05-15T12:20:19.642Z,2.10
2023-05-15T12:22:47.725Z,3.80
2023-05-15T12:25:17.748Z,2.20
2023-05-15T12:27:46.014Z,2.95
2023-05-15T12:30:15.672Z,5.45
2023-05-15T12:32:44.715Z,3.15
2023-05-15T12:35:13.038Z,2.85
2023-05-15T12:37:43.326Z,3.05
2023-05-15T12:40:12.385Z,3.00
2023-05-15T12:42:45.794Z,2.53
2023-05-15T12:45:15.696Z,2.38
2023-05-15T12:47:44.481Z,6.65
2023-05-15T12:50:16.974Z,3.97
2023-05-15T12:52:52.419Z,2.75
2023-05-15T12:55:24.808Z,2.15
2023-05-15T12:57:54.916Z,2.65
2023-05-15T13:00:25.710Z,2.92
2023-05-15T13:02:56.108Z,2.10
2023-05-15T13:05:24.514Z,3.53
2023-05-15T13:07:53.024Z,2.20
2023-05-15T13:10:24.006Z,3.42
2023-05-15T13:12:54.733Z,2.50
2023-05-15T13:15:31.613Z,3.65
2023-05-15T13:18:04.417Z,2.67
2023-05-15T13:20:36.038Z,4.07
2023-05-15T13:23:04.509Z,3.03
2023-05-15T13:25:32.926Z,4.40
2023-05-15T13:28:04.425Z,17.38
2023-05-15T13:30:34.622Z,3.47
2023-05-15T13:33:04.885Z,4.68
2023-05-15T13:35:32.994Z,4.22
2023-05-15T13:38:01.516Z,4.43
2023-05-15T13:40:31.108Z,3.17
2023-05-15T13:42:59.249Z,5.53
2023-05-15T13:45:28.818Z,4.13
2023-05-15T13:47:57.201Z,3.97
2023-05-15T13:50:25.666Z,2.63
2023-05-15T13:52:54.484Z,3.50
2023-05-15T13:55:23.326Z,4.25
2023-05-15T13:57:52.147Z,4.63
2023-05-15T14:00:21.846Z,5.35
2023-05-15T14:02:51.458Z,3.60
2023-05-15T14:05:19.653Z,3.65
2023-05-15T14:07:47.744Z,5.50
2023-05-15T14:10:15.835Z,3.15
2023-05-15T14:12:44.293Z,4.93
2023-05-15T14:15:13.020Z,3.80
2023-05-15T14:17:41.752Z,2.85
2023-05-15T14:20:13.005Z,4.50
2023-05-15T14:22:42.054Z,3.08
2023-05-15T14:25:10.820Z,3.78
2023-05-15T14:27:39.013Z,3.97
2023-05-15T14:30:08.415Z,3.83
2023-05-15T14:32:36.540Z,6.07
2023-05-15T14:35:05.221Z,4.60
2023-05-15T14:37:34.720Z,6.90
2023-05-15T14:40:03.008Z,6.30
2023-05-15T14:42:31.192Z,5.75
2023-05-15T14:44:59.329Z,5.68
2023-05-15T14:47:29.985Z,7.05
2023-05-15T14:49:58.192Z,5.82
2023-05-15T14:52:27.033Z,6.53
2023-05-15T14:55:08.040Z,5.53
2023-05-15T14:57:37.684Z,6.33
2023-05-15T15:00:07.391Z,7.25
2023-05-15T15:02:35.818Z,7.10
2023-05-15T15:05:04.775Z,5.40
2023-05-15T15:07:53.026Z,5.80
2023-05-15T15:10:22.485Z,6.30
2023-05-15T15:12:52.939Z,6.97
2023-05-15T15:15:21.487Z,7.78
2023-05-15T15:17:49.653Z,12.88
2023-05-15T15:20:19.101Z,8.75
2023-05-15T15:22:47.511Z,8.07
2023-05-15T15:25:15.965Z,8.60
2023-05-15T15:27:46.262Z,8.00
2023-05-15T15:30:14.682Z,6.13
2023-05-15T15:32:44.541Z,8.00
2023-05-15T15:35:12.971Z,10.05
2023-05-15T15:37:41.080Z,6.82
2023-05-15T15:40:11.191Z,5.35
2023-05-15T15:42:39.331Z,7.72
2023-05-15T15:45:09.689Z,6.15
2023-05-15T15:47:37.954Z,5.78
2023-05-15T15:50:07.058Z,8.07
2023-05-15T15:52:35.213Z,6.15
2023-05-15T15:55:03.528Z,7.28
2023-05-15T15:57:31.858Z,7.82
2023-05-15T16:00:00.072Z,7.55
2023-05-15T16:02:29.740Z,6.28
2023-05-15T16:04:57.889Z,5.60
2023-05-15T16:07:26.052Z,5.75
2023-05-15T16:10:10.087Z,6.35
2023-05-15T16:12:42.436Z,6.28
2023-05-15T16:15:22.311Z,5.95
2023-05-15T16:17:57.396Z,6.03
2023-05-15T16:20:26.366Z,6.40
2023-05-15T16:22:55.297Z,8.98
2023-05-15T16:25:23.648Z,4.72
2023-05-15T16:27:51.758Z,4.90
2023-05-15T16:30:20.038Z,7.22
2023-05-15T16:32:48.601Z,6.70
2023-05-15T16:35:20.574Z,5.15
2023-05-15T16:37:48.707Z,5.20
2023-05-15T16:40:17.011Z,4.95
2023-05-15T16:42:45.094Z,4.88
2023-05-15T16:45:13.176Z,4.32
2023-05-15T16:47:41.444Z,6.07
2023-05-15T16:50:10.313Z,6.55
2023-05-15T16:52:45.370Z,5.05
2023-05-15T16:55:16.333Z,4.55
2023-05-15T16:57:45.292Z,7.07
2023-05-15T17:00:15.173Z,5.25
2023-05-15T17:02:43.754Z,6.10
2023-05-15T17:05:13.954Z,5.97
2023-05-15T17:07:44.496Z,6.05
2023-05-15T17:10:13.929Z,8.68
2023-05-15T17:12:42.454Z,6.80
2023-05-15T17:15:11.090Z,5.50
2023-05-15T17:17:39.246Z,6.47
2023-05-15T17:20:08.440Z,5.72
2023-05-15T17:22:36.664Z,6.55
2023-05-15T17:25:07.112Z,5.65
2023-05-15T17:27:39.703Z,7.90
2023-05-15T17:30:09.084Z,6.47
2023-05-15T17:32:37.282Z,8.55
2023-05-15T17:35:06.212Z,9.05
2023-05-15T17:37:34.299Z,4.82
2023-05-15T17:40:02.679Z,5.90
2023-05-15T17:42:32.129Z,6.20
2023-05-15T17:45:00.408Z,6.45
2023-05-15T17:47:28.699Z,8.45
2023-05-15T17:49:56.992Z,8.13
2023-05-15T17:52:25.053Z,6.15
2023-05-15T17:54:53.190Z,9.70
2023-05-15T17:57:21.270Z,6.68
2023-05-15T17:59:50.766Z,7.07
2023-05-15T18:02:18.855Z,6.10
2023-05-15T18:04:46.975Z,10.00
2023-05-15T18:07:15.137Z,8.48
2023-05-15T18:09:43.196Z,8.65
2023-05-15T18:12:14.342Z,8.30
2023-05-15T18:14:42.522Z,7.43
2023-05-15T18:17:11.950Z,9.95
2023-05-15T18:19:40.057Z,6.85
2023-05-15T18:22:08.185Z,8.02
2023-05-15T18:24:36.270Z,6.93
2023-05-15T18:27:04.515Z,7.00
2023-05-15T18:29:32.576Z,6.28
2023-05-15T18:32:00.783Z,7.63
2023-05-15T18:34:30.336Z,6.15
2023-05-15T18:36:58.421Z,6.70
2023-05-15T18:39:26.783Z,5.05
2023-05-15T18:41:55.296Z,7.97
2023-05-15T18:44:23.453Z,5.82
2023-05-15T18:46:51.776Z,9.85
2023-05-15T18:49:19.836Z,5.82
2023-05-15T18:51:49.280Z,5.72
2023-05-15T18:54:17.526Z,6.53
2023-05-15T18:56:45.623Z,6.95
2023-05-15T18:59:14.027Z,31.80
2023-05-15T19:01:42.150Z,11.77
2023-05-15T19:04:10.388Z,8.82
2023-05-15T19:06:40.814Z,7.82
2023-05-15T19:09:10.652Z,8.38
2023-05-15T19:11:38.838Z,6.72
2023-05-15T19:14:07.242Z,8.32
2023-05-15T19:16:35.388Z,8.15
2023-05-15T19:19:03.627Z,6.93
2023-05-15T19:21:32.413Z,7.45
2023-05-15T19:24:00.562Z,9.90
2023-05-15T19:26:30.402Z,6.55
2023-05-15T19:28:58.706Z,8.70
2023-05-15T19:31:31.316Z,13.50
2023-05-15T19:34:00.629Z,6.30
2023-05-15T19:36:28.811Z,12.35
2023-05-15T19:38:57.187Z,9.68
2023-05-15T19:41:25.337Z,7.47
2023-05-15T19:43:54.966Z,13.30
2023-05-15T19:46:23.665Z,8.90
2023-05-15T19:48:51.863Z,6.57
2023-05-15T19:51:20.361Z,7.70
2023-05-15T19:53:48.554Z,9.20
2023-05-15T19:56:17.641Z,11.05
2023-05-15T19:58:45.898Z,13.63
2023-05-15T20:01:15.892Z,12.20
2023-05-15T20:03:44.276Z,8.57
2023-05-15T20:06:14.002Z,11.70
2023-05-15T20:08:42.126Z,10.55
2023-05-15T20:11:10.405Z,20.52
2023-05-15T20:13:39.151Z,23.80
2023-05-15T20:16:10.459Z,19.13
2023-05-15T20:18:42.038Z,13.40
2023-05-15T20:21:10.549Z,14.98
2023-05-15T20:23:39.220Z,13.52
2023-05-15T20:26:07.291Z,10.90
2023-05-15T20:28:35.368Z,15.57
2023-05-15T20:31:03.514Z,9.23
2023-05-15T20:33:31.741Z,12.90
2023-05-15T20:36:02.259Z,9.00
2023-05-15T20:38:30.395Z,10.13
2023-05-15T20:40:58.481Z,9.93
2023-05-15T20:43:26.982Z,11.38
2023-05-15T20:45:55.205Z,10.15
2023-05-15T20:48:23.364Z,13.55
2023-05-15T20:50:53.781Z,10.45
2023-05-15T20:53:23.510Z,10.00
2023-05-15T20:55:51.672Z,10.77
2023-05-15T20:58:21.345Z,11.25
2023-05-15T21:00:49.747Z,17.38
2023-05-15T21:03:17.934Z,15.52
2023-05-15T21:05:46.237Z,14.07
2023-05-15T21:08:14.831Z,13.65
2023-05-15T21:10:45.382Z,11.75
2023-05-15T21:13:14.073Z,11.60
2023-05-15T21:15:42.341Z,11.23
2023-05-15T21:18:12.067Z,14.35
2023-05-15T21:20:41.762Z,14.50
2023-05-15T21:23:09.871Z,12.02
2023-05-15T21:25:38.338Z,11.65
2023-05-15T21:28:11.412Z,11.95
2023-05-15T21:30:39.592Z,12.38
2023-05-15T21:33:08.099Z,13.80
2023-05-15T21:35:36.449Z,11.45
2023-05-15T21:38:05.711Z,13.77
2023-05-15T21:40:34.513Z,13.70
2023-05-15T21:43:03.276Z,11.18
2023-05-15T21:45:33.215Z,11.25
2023-05-15T21:48:02.581Z,14.45
2023-05-15T21:50:31.067Z,11.13
2023-05-15T21:52:59.204Z,12.32
2023-05-15T21:55:27.318Z,9.90
2023-05-15T21:57:55.961Z,12.77
2023-05-15T22:00:24.745Z,12.30
2023-05-15T22:02:54.419Z,12.55
2023-05-15T22:05:22.700Z,11.57
2023-05-15T22:07:50.976Z,12.80
2023-05-15T22:10:19.154Z,13.20
2023-05-15T22:12:47.478Z,10.95
2023-05-15T22:15:16.698Z,12.30
2023-05-15T22:17:44.917Z,11.95
2023-05-15T22:20:15.528Z,13.15
2023-05-15T22:22:44.120Z,11.68
2023-05-15T22:25:12.288Z,10.68
2023-05-15T22:27:40.394Z,10.57
2023-05-15T22:30:09.775Z,10.18
2023-05-15T22:32:37.968Z,11.00
2023-05-15T22:35:06.944Z,12.30
2023-05-15T22:37:36.697Z,13.93
2023-05-15T22:40:07.495Z,12.65
2023-05-15T22:42:35.604Z,13.23
2023-05-15T22:45:03.959Z,13.23
2023-05-15T22:47:32.609Z,10.65
2023-05-15T22:50:00.870Z,11.38
2023-05-15T22:52:29.079Z,13.57
2023-05-15T22:54:58.509Z,13.98
2023-05-15T22:57:26.967Z,14.50
2023-05-15T22:59:55.080Z,12.77
2023-05-15T23:02:23.175Z,13.20
2023-05-15T23:04:51.289Z,14.45
2023-05-15T23:07:19.370Z,13.82
2023-05-15T23:09:47.620Z,16.00
2023-05-15T23:12:17.111Z,14.45
2023-05-15T23:14:45.179Z,16.73
2023-05-15T23:17:13.823Z,14.90
2023-05-15T23:19:42.011Z,14.52
2023-05-15T23:22:10.113Z,14.48
2023-05-15T23:24:38.328Z,14.45
2023-05-15T23:27:06.801Z,13.75
2023-05-15T23:29:36.281Z,12.05
2023-05-15T23:32:04.477Z,11.73
2023-05-15T23:34:32.560Z,13.43
2023-05-15T23:37:00.686Z,13.07
2023-05-15T23:39:28.754Z,11.77
2023-05-15T23:42:00.012Z,16.55
2023-05-15T23:44:28.286Z,17.75
2023-05-15T23:46:57.851Z,13.65
2023-05-15T23:49:26.057Z,11.82
2023-05-15T23:51:54.557Z,13.32
2023-05-15T23:54:22.665Z,14.90
2023-05-15T23:56:50.983Z,12.93
2023-05-15T23:59:19.152Z,12.32
